createdAt,value
2023-05-19T00:00:29.788Z,25.88
2023-05-19T00:03:01.729Z,25.86
2023-05-19T00:05:31.727Z,25.88
2023-05-19T00:08:04.405Z,25.86
2023-05-19T00:10:34.333Z,25.89
2023-05-19T00:13:04.189Z,25.85
2023-05-19T00:15:33.985Z,25.89
2023-05-19T00:18:03.870Z,25.88
2023-05-19T00:20:33.645Z,25.82
2023-05-19T00:23:03.515Z,25.78
2023-05-19T00:25:32.711Z,25.76
2023-05-19T00:28:03.768Z,25.73
2023-05-19T00:30:33.579Z,25.81
2023-05-19T00:33:02.997Z,25.90
2023-05-19T00:35:32.540Z,25.97
2023-05-19T00:38:01.828Z,26.01
2023-05-19T00:40:33.123Z,26.04
2023-05-19T00:43:02.571Z,26.05
2023-05-19T00:45:32.170Z,26.04
2023-05-19T00:48:01.513Z,26.03
2023-05-19T00:50:31.437Z,26.13
2023-05-19T00:53:00.935Z,26.12
2023-05-19T00:55:32.640Z,26.20
2023-05-19T00:58:02.923Z,26.23
2023-05-19T01:00:33.495Z,26.24
2023-05-19T01:03:04.078Z,26.29
2023-05-19T01:05:33.722Z,26.33
2023-05-19T01:08:02.985Z,26.35
2023-05-19T01:10:32.574Z,26.37
2023-05-19T01:13:03.748Z,26.50
2023-05-19T01:15:41.834Z,26.52
2023-05-19T01:18:18.183Z,26.61
2023-05-19T01:21:00.378Z,26.65
2023-05-19T01:23:55.513Z,26.73
2023-05-19T01:26:51.217Z,26.78
2023-05-19T01:30:05.005Z,26.83
2023-05-19T01:32:36.130Z,26.89
2023-05-19T01:35:07.963Z,26.96
2023-05-19T01:37:40.518Z,27.00
2023-05-19T01:40:12.718Z,27.13
2023-05-19T01:42:43.142Z,27.35
2023-05-19T01:45:14.600Z,27.56
2023-05-19T01:47:46.345Z,27.77
2023-05-19T01:50:16.427Z,28.22
2023-05-19T01:52:45.658Z,28.77
2023-05-19T01:55:15.073Z,28.96
2023-05-19T01:58:02.962Z,29.34
2023-05-19T02:00:42.558Z,29.66
2023-05-19T02:03:17.777Z,29.83
2023-05-19T02:05:59.368Z,30.15
2023-05-19T02:08:34.319Z,30.32
2023-05-19T02:11:13.419Z,30.69
2023-05-19T02:13:51.021Z,30.92
2023-05-19T02:16:26.638Z,31.01
2023-05-19T02:18:58.409Z,31.06
2023-05-19T02:21:28.817Z,31.56
2023-05-19T02:23:57.993Z,31.74
2023-05-19T02:26:27.568Z,31.95
2023-05-19T02:28:56.878Z,32.09
2023-05-19T02:31:26.880Z,32.39
2023-05-19T02:33:58.201Z,32.56
2023-05-19T02:36:27.917Z,32.80
2023-05-19T02:38:57.253Z,32.70
2023-05-19T02:41:27.322Z,32.79
2023-05-19T02:43:57.197Z,32.99
2023-05-19T02:46:26.486Z,33.00
2023-05-19T02:48:56.529Z,33.16
2023-05-19T02:51:25.870Z,33.22
2023-05-19T02:53:55.258Z,33.40
2023-05-19T02:56:25.403Z,33.53
2023-05-19T02:58:55.463Z,33.84
2023-05-19T03:01:24.869Z,33.75
2023-05-19T03:03:54.436Z,34.00
2023-05-19T03:06:24.731Z,33.77
2023-05-19T03:08:54.088Z,33.26
2023-05-19T03:11:24.345Z,33.60
2023-05-19T03:13:54.471Z,33.58
2023-05-19T03:16:23.689Z,33.39
2023-05-19T03:18:53.553Z,33.65
2023-05-19T03:21:22.963Z,33.59
2023-05-19T03:23:52.600Z,33.25
2023-05-19T03:26:24.316Z,33.14
2023-05-19T03:28:53.991Z,33.17
2023-05-19T03:31:24.201Z,33.18
2023-05-19T03:33:53.550Z,33.19
2023-05-19T03:36:23.949Z,33.14
2023-05-19T03:38:53.702Z,33.35
2023-05-19T03:41:23.364Z,33.48
2023-05-19T03:43:53.296Z,33.33
2023-05-19T03:46:25.997Z,33.61
2023-05-19T03:49:25.418Z,33.73
2023-05-19T03:52:14.031Z,34.19
2023-05-19T03:54:57.114Z,34.21
2023-05-19T03:57:26.544Z,34.48
2023-05-19T03:59:55.999Z,34.34
2023-05-19T04:02:25.524Z,34.31
2023-05-19T04:04:55.354Z,34.33
2023-05-19T04:07:24.869Z,34.44
2023-05-19T04:09:54.273Z,34.78
2023-05-19T04:12:23.797Z,34.79
2023-05-19T04:14:55.182Z,34.94
2023-05-19T04:17:30.361Z,35.34
2023-05-19T04:20:00.296Z,34.99
2023-05-19T04:22:30.552Z,34.96
2023-05-19T04:25:01.372Z,35.27
2023-05-19T04:27:32.999Z,34.97
2023-05-19T04:30:02.368Z,35.13
2023-05-19T04:32:32.695Z,35.26
2023-05-19T04:35:09.449Z,35.03
2023-05-19T04:37:40.311Z,35.23
2023-05-19T04:40:12.201Z,35.25
2023-05-19T04:42:44.224Z,35.52
2023-05-19T04:45:15.041Z,35.71
2023-05-19T04:47:49.365Z,35.25
2023-05-19T04:50:18.737Z,34.93
2023-05-19T04:52:47.946Z,35.09
2023-05-19T04:55:18.426Z,35.32
2023-05-19T04:57:49.193Z,36.00
2023-05-19T05:00:20.031Z,36.24
2023-05-19T05:03:00.785Z,36.54
2023-05-19T05:05:33.094Z,36.59
2023-05-19T05:08:03.103Z,36.40
2023-05-19T05:10:37.986Z,35.85
2023-05-19T05:13:09.972Z,36.39
2023-05-19T05:15:42.074Z,36.28
2023-05-19T05:18:13.220Z,36.16
2023-05-19T05:20:44.814Z,36.18
2023-05-19T05:23:17.958Z,36.70
2023-05-19T05:25:49.889Z,36.85
2023-05-19T05:28:21.264Z,36.10
2023-05-19T05:30:51.346Z,36.63
2023-05-19T05:33:20.857Z,36.55
2023-05-19T05:35:51.650Z,36.20
2023-05-19T05:38:23.779Z,36.43
2023-05-19T05:40:56.223Z,36.75
2023-05-19T05:43:25.698Z,36.67
2023-05-19T05:46:00.390Z,36.85
2023-05-19T05:48:30.120Z,36.70
2023-05-19T05:51:01.601Z,36.64
2023-05-19T05:53:38.470Z,36.40
2023-05-19T05:56:09.770Z,36.42
2023-05-19T05:58:47.730Z,36.46
2023-05-19T06:01:19.023Z,36.42
2023-05-19T06:03:48.447Z,36.40
2023-05-19T06:06:22.558Z,35.94
2023-05-19T06:08:53.662Z,35.94
2023-05-19T06:11:24.719Z,36.20
2023-05-19T06:13:55.863Z,36.35
2023-05-19T06:17:03.728Z,36.53
2023-05-19T06:19:33.895Z,36.44
2023-05-19T06:22:03.323Z,36.79
2023-05-19T06:24:33.290Z,36.62
2023-05-19T06:27:02.682Z,36.67
2023-05-19T06:29:32.168Z,36.71
2023-05-19T06:32:05.028Z,36.77
2023-05-19T06:34:34.646Z,36.57
2023-05-19T06:37:04.190Z,36.63
2023-05-19T06:39:35.663Z,36.68
2023-05-19T06:42:05.404Z,36.80
2023-05-19T06:44:57.980Z,36.79
2023-05-19T06:47:28.465Z,36.74
2023-05-19T06:49:59.087Z,36.84
2023-05-19T06:52:32.360Z,36.70
2023-05-19T06:55:04.057Z,36.45
2023-05-19T06:57:35.322Z,36.52
2023-05-19T07:00:08.109Z,36.74
2023-05-19T07:02:37.955Z,36.79
2023-05-19T07:05:09.443Z,36.79
2023-05-19T07:07:39.035Z,36.84
2023-05-19T07:10:13.531Z,36.97
2023-05-19T07:12:43.163Z,37.00
2023-05-19T07:15:12.968Z,36.78
2023-05-19T07:17:42.953Z,36.68
2023-05-19T07:20:13.354Z,36.63
2023-05-19T07:22:42.757Z,36.37
2023-05-19T07:25:11.993Z,36.59
2023-05-19T07:27:42.512Z,36.65
2023-05-19T07:30:12.256Z,36.68
2023-05-19T07:32:42.402Z,36.76
2023-05-19T07:35:11.687Z,36.70
2023-05-19T07:37:41.354Z,36.56
2023-05-19T07:40:11.542Z,36.74
2023-05-19T07:42:40.883Z,36.74
2023-05-19T07:45:10.957Z,36.73
2023-05-19T07:47:40.462Z,36.59
2023-05-19T07:50:10.183Z,36.51
2023-05-19T07:52:40.105Z,36.67
2023-05-19T07:55:09.416Z,36.62
2023-05-19T07:57:39.210Z,36.44
2023-05-19T08:00:12.903Z,36.46
2023-05-19T08:02:43.462Z,36.40
2023-05-19T08:05:13.052Z,36.47
2023-05-19T08:07:42.576Z,36.24
2023-05-19T08:10:11.920Z,36.36
2023-05-19T08:12:41.250Z,36.19
2023-05-19T08:15:12.721Z,36.25
2023-05-19T08:17:42.234Z,36.13
2023-05-19T08:20:15.269Z,36.16
2023-05-19T08:22:45.170Z,36.26
2023-05-19T08:25:14.974Z,36.34
2023-05-19T08:27:44.308Z,36.22
2023-05-19T08:30:14.258Z,36.21
2023-05-19T08:32:43.817Z,36.18
2023-05-19T08:35:13.054Z,36.13
2023-05-19T08:37:42.531Z,36.19
2023-05-19T08:40:20.122Z,36.15
2023-05-19T08:42:50.430Z,36.02
2023-05-19T08:45:19.905Z,36.17
2023-05-19T08:47:50.703Z,36.20
2023-05-19T08:50:30.181Z,36.17
2023-05-19T08:53:07.186Z,35.89
2023-05-19T08:55:54.349Z,35.90
2023-05-19T08:58:24.739Z,36.08
2023-05-19T09:00:55.322Z,36.18
2023-05-19T09:03:27.696Z,36.06
2023-05-19T09:05:57.063Z,36.11
2023-05-19T09:08:26.428Z,36.10
2023-05-19T09:10:55.829Z,36.11
2023-05-19T09:13:25.699Z,36.07
2023-05-19T09:15:55.343Z,36.11
2023-05-19T09:18:29.416Z,36.08
2023-05-19T09:21:06.290Z,36.07
2023-05-19T09:23:36.077Z,35.90
2023-05-19T09:26:10.024Z,35.92
2023-05-19T09:28:39.618Z,36.06
2023-05-19T09:31:10.484Z,36.06
2023-05-19T09:33:44.313Z,36.11
2023-05-19T09:36:15.667Z,36.13
2023-05-19T09:38:47.295Z,36.19
2023-05-19T09:41:17.472Z,36.18
2023-05-19T09:43:57.541Z,36.18
2023-05-19T09:46:34.235Z,36.14
2023-05-19T09:49:14.163Z,36.09
2023-05-19T09:51:43.938Z,36.06
2023-05-19T09:54:19.775Z,35.98
2023-05-19T09:56:58.554Z,35.94
2023-05-19T09:59:32.286Z,35.81
2023-05-19T10:02:03.708Z,35.93
2023-05-19T10:04:33.528Z,35.97
2023-05-19T10:07:06.565Z,35.98
2023-05-19T10:09:39.733Z,35.86
2023-05-19T10:12:13.231Z,35.84
2023-05-19T10:14:42.937Z,35.72
2023-05-19T10:17:13.736Z,35.76
2023-05-19T10:19:45.963Z,35.75
2023-05-19T10:22:15.679Z,35.75
2023-05-19T10:24:53.106Z,35.70
2023-05-19T10:27:24.005Z,35.70
2023-05-19T10:29:56.456Z,35.64
2023-05-19T10:32:30.989Z,35.57
2023-05-19T10:35:19.201Z,35.52
2023-05-19T10:38:01.139Z,35.49
2023-05-19T10:40:42.964Z,35.49
2023-05-19T10:43:13.007Z,35.48
2023-05-19T10:45:55.001Z,35.50
2023-05-19T10:48:24.826Z,35.52
2023-05-19T10:50:58.675Z,35.56
2023-05-19T10:53:36.338Z,35.55
2023-05-19T10:56:08.118Z,35.47
2023-05-19T10:58:46.929Z,35.50
2023-05-19T11:01:25.878Z,35.47
2023-05-19T11:03:58.376Z,35.42
2023-05-19T11:06:33.216Z,35.50
2023-05-19T11:09:13.012Z,35.49
2023-05-19T11:11:56.316Z,35.49
2023-05-19T11:14:28.712Z,35.49
2023-05-19T11:17:00.444Z,35.51
2023-05-19T11:19:39.345Z,35.46
2023-05-19T11:22:14.141Z,35.45
2023-05-19T11:24:54.574Z,35.38
2023-05-19T11:27:34.869Z,35.42
2023-05-19T11:30:11.024Z,35.43
2023-05-19T11:32:43.396Z,35.37
2023-05-19T11:35:14.038Z,35.35
2023-05-19T11:37:44.534Z,35.37
2023-05-19T11:40:16.936Z,35.29
2023-05-19T11:42:46.702Z,35.28
2023-05-19T11:45:16.087Z,35.27
2023-05-19T11:48:01.178Z,35.23
2023-05-19T11:50:33.558Z,35.19
2023-05-19T11:53:03.332Z,35.18
2023-05-19T11:55:33.820Z,35.13
2023-05-19T11:58:05.869Z,35.07
2023-05-19T12:00:46.934Z,34.95
2023-05-19T12:03:16.889Z,34.94
2023-05-19T12:05:47.957Z,34.96
2023-05-19T12:08:22.785Z,34.94
2023-05-19T12:10:53.713Z,34.84
2023-05-19T12:13:24.592Z,34.80
2023-05-19T12:15:54.587Z,34.74
2023-05-19T12:18:29.031Z,34.66
2023-05-19T12:20:58.621Z,34.59
2023-05-19T12:23:31.922Z,34.59
2023-05-19T12:26:02.293Z,34.53
2023-05-19T12:28:35.074Z,34.49
2023-05-19T12:31:04.670Z,34.42
2023-05-19T12:33:36.008Z,34.38
2023-05-19T12:36:06.912Z,34.34
2023-05-19T12:38:38.487Z,34.26
2023-05-19T12:41:08.317Z,34.23
2023-05-19T12:43:38.822Z,34.31
2023-05-19T12:46:15.360Z,34.27
2023-05-19T12:48:45.991Z,34.24
2023-05-19T12:51:21.839Z,34.23
2023-05-19T12:53:53.037Z,34.20
2023-05-19T12:56:23.368Z,34.17
2023-05-19T12:58:59.571Z,34.14
2023-05-19T13:01:32.548Z,34.08
2023-05-19T13:04:04.582Z,34.05
2023-05-19T13:06:35.958Z,33.99
2023-05-19T13:09:05.358Z,33.92
2023-05-19T13:11:34.944Z,33.78
2023-05-19T13:14:04.357Z,33.66
2023-05-19T13:16:34.606Z,33.64
2023-05-19T13:19:06.197Z,33.59
2023-05-19T13:21:36.876Z,33.54
2023-05-19T13:24:06.731Z,33.53
2023-05-19T13:26:36.195Z,33.53
2023-05-19T13:29:05.786Z,33.52
2023-05-19T13:31:35.356Z,33.51
2023-05-19T13:34:05.598Z,33.50
2023-05-19T13:36:36.204Z,33.39
2023-05-19T13:39:06.531Z,33.34
2023-05-19T13:41:36.911Z,33.24
2023-05-19T13:44:06.054Z,33.16
2023-05-19T13:46:44.926Z,33.11
2023-05-19T13:49:15.845Z,33.08
2023-05-19T13:51:45.568Z,32.94
2023-05-19T13:54:14.796Z,32.82
2023-05-19T13:56:45.951Z,32.80
2023-05-19T13:59:15.448Z,32.72
2023-05-19T14:01:46.698Z,32.69
2023-05-19T14:04:19.686Z,32.70
2023-05-19T14:06:49.839Z,32.64
2023-05-19T14:09:19.031Z,32.60
2023-05-19T14:11:49.459Z,32.59
2023-05-19T14:14:19.257Z,32.55
2023-05-19T14:16:48.826Z,32.56
2023-05-19T14:19:18.329Z,32.52
2023-05-19T14:21:51.093Z,32.49
2023-05-19T14:24:21.286Z,32.49
2023-05-19T14:26:51.112Z,32.45
2023-05-19T14:29:21.201Z,32.40
2023-05-19T14:31:50.716Z,32.31
2023-05-19T14:34:22.119Z,32.25
2023-05-19T14:36:52.174Z,32.18
2023-05-19T14:39:21.809Z,32.16
2023-05-19T14:41:53.145Z,32.11
2023-05-19T14:44:22.619Z,32.03
2023-05-19T14:46:51.992Z,31.96
2023-05-19T14:49:21.453Z,31.90
2023-05-19T14:51:50.787Z,31.88
2023-05-19T14:54:20.414Z,31.82
2023-05-19T14:56:49.856Z,31.77
2023-05-19T14:59:19.840Z,31.74
2023-05-19T15:01:49.108Z,31.75
2023-05-19T15:04:18.932Z,31.78
2023-05-19T15:06:55.029Z,31.73
2023-05-19T15:09:35.066Z,31.69
2023-05-19T15:12:04.443Z,31.68
2023-05-19T15:14:34.608Z,31.66
2023-05-19T15:17:04.051Z,31.70
2023-05-19T15:19:33.853Z,31.70
2023-05-19T15:22:03.590Z,31.68
2023-05-19T15:24:32.915Z,31.62
2023-05-19T15:27:03.141Z,31.51
2023-05-19T15:29:32.754Z,31.51
2023-05-19T15:32:02.141Z,31.49
2023-05-19T15:34:35.898Z,31.44
2023-05-19T15:37:06.001Z,31.38
2023-05-19T15:39:36.014Z,31.32
2023-05-19T15:42:05.736Z,31.31
2023-05-19T15:44:35.187Z,31.27
2023-05-19T15:47:04.965Z,31.19
2023-05-19T15:49:34.554Z,31.12
2023-05-19T15:52:04.873Z,31.08
2023-05-19T15:54:34.349Z,31.07
2023-05-19T15:57:03.533Z,31.06
2023-05-19T15:59:33.721Z,31.01
2023-05-19T16:02:03.706Z,31.00
2023-05-19T16:04:33.049Z,30.98
2023-05-19T16:07:02.490Z,30.99
2023-05-19T16:09:31.776Z,30.93
2023-05-19T16:12:01.516Z,30.90
2023-05-19T16:14:34.507Z,30.87
2023-05-19T16:17:12.426Z,30.84
2023-05-19T16:19:42.224Z,30.77
2023-05-19T16:22:11.820Z,30.80
2023-05-19T16:24:41.267Z,30.76
2023-05-19T16:27:11.335Z,30.75
2023-05-19T16:29:41.322Z,30.71
2023-05-19T16:32:10.655Z,30.70
2023-05-19T16:34:40.170Z,30.72
2023-05-19T16:37:09.504Z,30.68
2023-05-19T16:39:38.820Z,30.62
2023-05-19T16:42:08.316Z,30.58
2023-05-19T16:44:37.619Z,30.56
2023-05-19T16:47:07.920Z,30.48
2023-05-19T16:49:37.351Z,30.42
2023-05-19T16:52:06.995Z,30.40
2023-05-19T16:54:36.804Z,30.36
2023-05-19T16:57:06.925Z,30.29
2023-05-19T16:59:36.404Z,30.24
2023-05-19T17:02:06.059Z,30.21
2023-05-19T17:04:35.963Z,30.17
2023-05-19T17:07:06.047Z,30.12
2023-05-19T17:09:35.670Z,30.08
2023-05-19T17:12:05.887Z,30.03
2023-05-19T17:14:36.111Z,29.99
2023-05-19T17:17:06.318Z,29.99
2023-05-19T17:19:36.969Z,29.99
2023-05-19T17:22:06.794Z,29.91
2023-05-19T17:24:36.253Z,29.89
2023-05-19T17:27:07.067Z,29.85
2023-05-19T17:29:37.326Z,29.76
2023-05-19T17:32:07.527Z,29.71
2023-05-19T17:34:37.263Z,29.71
2023-05-19T17:37:07.778Z,29.64
2023-05-19T17:39:37.725Z,29.61
2023-05-19T17:42:08.961Z,29.56
2023-05-19T17:44:39.295Z,29.55
2023-05-19T17:47:09.516Z,29.50
2023-05-19T17:49:41.533Z,29.45
2023-05-19T17:52:12.156Z,29.48
2023-05-19T17:54:42.330Z,29.44
2023-05-19T17:57:16.488Z,29.39
2023-05-19T17:59:46.932Z,29.34
2023-05-19T18:02:16.960Z,29.29
2023-05-19T18:04:47.450Z,29.30
2023-05-19T18:07:17.982Z,29.28
2023-05-19T18:09:49.133Z,29.28
2023-05-19T18:12:19.641Z,29.25
2023-05-19T18:14:49.618Z,29.22
2023-05-19T18:17:19.392Z,29.17
2023-05-19T18:19:50.977Z,29.13
2023-05-19T18:22:20.946Z,29.13
2023-05-19T18:24:51.052Z,29.16
2023-05-19T18:27:21.626Z,29.18
2023-05-19T18:29:51.854Z,29.15
2023-05-19T18:32:22.231Z,29.10
2023-05-19T18:34:52.177Z,29.15
2023-05-19T18:37:22.335Z,29.20
2023-05-19T18:39:53.199Z,29.24
2023-05-19T18:42:23.639Z,29.27
2023-05-19T18:44:53.910Z,29.32
2023-05-19T18:47:24.481Z,29.34
2023-05-19T18:49:54.380Z,29.37
2023-05-19T18:52:24.115Z,29.49
2023-05-19T18:54:54.728Z,29.50
2023-05-19T18:57:24.881Z,29.50
2023-05-19T18:59:55.064Z,29.52
2023-05-19T19:02:24.676Z,29.51
2023-05-19T19:04:54.608Z,29.56
2023-05-19T19:07:27.996Z,29.52
2023-05-19T19:09:57.492Z,29.49
2023-05-19T19:12:27.574Z,29.41
2023-05-19T19:14:57.738Z,29.40
2023-05-19T19:17:27.979Z,29.38
2023-05-19T19:19:57.727Z,29.36
2023-05-19T19:22:27.725Z,29.30
2023-05-19T19:24:57.162Z,29.24
2023-05-19T19:27:32.438Z,29.24
2023-05-19T19:30:02.902Z,29.22
2023-05-19T19:32:33.681Z,29.23
2023-05-19T19:35:03.314Z,29.21
2023-05-19T19:37:33.459Z,29.10
2023-05-19T19:40:03.171Z,28.99
2023-05-19T19:42:32.941Z,28.85
2023-05-19T19:45:02.691Z,28.84
2023-05-19T19:47:31.945Z,28.83
2023-05-19T19:50:03.825Z,28.80
2023-05-19T19:52:33.612Z,28.83
2023-05-19T19:55:03.638Z,28.89
2023-05-19T19:57:35.167Z,28.83
2023-05-19T20:00:09.434Z,28.73
2023-05-19T20:02:55.330Z,28.65
2023-05-19T20:05:29.838Z,28.56
2023-05-19T20:07:58.937Z,28.50
2023-05-19T20:10:29.024Z,28.44
2023-05-19T20:12:59.997Z,28.36
2023-05-19T20:15:29.619Z,28.26
2023-05-19T20:17:58.775Z,28.15
2023-05-19T20:20:28.505Z,28.16
2023-05-19T20:22:57.630Z,28.12
2023-05-19T20:25:27.332Z,28.07
2023-05-19T20:28:06.891Z,28.05
2023-05-19T20:30:36.808Z,27.97
2023-05-19T20:33:06.857Z,27.93
2023-05-19T20:35:36.399Z,27.90
2023-05-19T20:38:05.753Z,27.85
2023-05-19T20:40:35.239Z,27.84
2023-05-19T20:43:04.689Z,27.81
2023-05-19T20:45:34.945Z,27.81
2023-05-19T20:48:04.864Z,27.82
2023-05-19T20:50:34.263Z,27.75
2023-05-19T20:53:03.955Z,27.73
2023-05-19T20:55:33.476Z,27.68
2023-05-19T20:58:02.777Z,27.61
2023-05-19T21:00:32.765Z,27.60
2023-05-19T21:03:03.155Z,27.56
2023-05-19T21:05:33.095Z,27.54
2023-05-19T21:08:02.705Z,27.49
2023-05-19T21:10:32.331Z,27.48
2023-05-19T21:13:01.966Z,27.43
2023-05-19T21:15:31.375Z,27.38
2023-05-19T21:18:01.515Z,27.41
2023-05-19T21:20:30.944Z,27.43
2023-05-19T21:23:00.307Z,27.43
2023-05-19T21:25:29.592Z,27.41
2023-05-19T21:28:02.145Z,27.41
2023-05-19T21:30:31.845Z,27.36
2023-05-19T21:33:01.148Z,27.34
2023-05-19T21:35:30.424Z,27.36
2023-05-19T21:38:03.885Z,27.36
2023-05-19T21:40:39.143Z,27.34
2023-05-19T21:43:08.566Z,27.34
2023-05-19T21:45:38.996Z,27.28
2023-05-19T21:48:08.519Z,27.29
2023-05-19T21:50:38.786Z,27.31
2023-05-19T21:53:08.266Z,27.29
2023-05-19T21:55:37.438Z,27.33
2023-05-19T21:58:07.153Z,27.25
2023-05-19T22:00:37.647Z,27.20
2023-05-19T22:03:07.952Z,27.16
2023-05-19T22:05:39.157Z,27.15
2023-05-19T22:08:09.459Z,27.12
2023-05-19T22:10:38.900Z,27.08
2023-05-19T22:13:08.629Z,27.07
2023-05-19T22:15:38.912Z,27.09
2023-05-19T22:18:08.462Z,27.05
2023-05-19T22:20:38.501Z,27.00
2023-05-19T22:23:08.757Z,26.99
2023-05-19T22:25:37.976Z,26.97
2023-05-19T22:28:09.269Z,27.00
2023-05-19T22:30:41.301Z,27.00
2023-05-19T22:33:11.558Z,26.91
2023-05-19T22:35:41.422Z,26.97
2023-05-19T22:38:10.893Z,26.91
2023-05-19T22:40:40.692Z,26.94
2023-05-19T22:43:09.817Z,26.92
2023-05-19T22:45:39.366Z,26.92
2023-05-19T22:48:08.779Z,27.06
2023-05-19T22:50:38.070Z,26.99
2023-05-19T22:53:07.154Z,26.93
2023-05-19T22:55:36.781Z,26.99
2023-05-19T22:58:07.415Z,26.94
2023-05-19T23:00:38.072Z,27.07
2023-05-19T23:03:07.511Z,26.95
2023-05-19T23:05:36.529Z,27.02
2023-05-19T23:08:06.011Z,27.02
2023-05-19T23:10:35.033Z,26.98
2023-05-19T23:13:04.345Z,26.87
2023-05-19T23:15:33.917Z,26.88
2023-05-19T23:18:08.130Z,26.93
2023-05-19T23:20:37.624Z,26.83
2023-05-19T23:23:06.840Z,26.81
2023-05-19T23:25:36.376Z,26.75
2023-05-19T23:28:05.987Z,26.74
2023-05-19T23:30:38.742Z,26.74
2023-05-19T23:33:08.429Z,26.70
2023-05-19T23:35:37.836Z,26.63
2023-05-19T23:38:07.224Z,26.71
2023-05-19T23:40:36.952Z,26.66
2023-05-19T23:43:06.398Z,26.60
2023-05-19T23:45:36.433Z,26.63
2023-05-19T23:48:06.611Z,26.56
2023-05-19T23:50:36.083Z,26.44
2023-05-19T23:53:05.461Z,26.47
2023-05-19T23:55:34.787Z,26.42
2023-05-19T23:58:05.018Z,26.44
